Pagrindinis puslapis
METAR-TAF:

METAR-TAF

Oro uostai :

Albenga, Italija

platuma: 44-03N, ilguma: 008-07E, Aukštis: 45 m

Dabartinis oras

Ataskaita buvo paskelbta 1 valandą ir 5 minutes, ne 09:50 UTC
Vėjas 15 kt iš Šiaurės/Šiaurės Rytų su gūsio iki 26 kt
Temperatūra 23°C
Drėgmė 38%
Slėgis 1021 hPa
Matomumas 10 km arba daugiau
nėra debesų žemiau 1500 m ir nėra kamuolinių lietaus debesų

METAR: LIMG 210950Z 03015G26KT CAVOK 23/08 Q1021

Laikas: 12:55 (10:55 UTC)


TAF: trūkstamas

Orai ataskaitas ir orų prognozės (METAR, TAF).

turimą stotys yra geltonos ir raudonos taškus žemėlapyje.

Perkelti pele per norėdami pamatyti stoties vardą.

Tada spustelėkite, norėdami matyti oro stebėjimo ir prognozės.

Norėdami pakeisti žemėlapį: spustelėkite ant žalios mygtukų su juodo kryžiaus žemyn,; žalią mygtuką su brūkšneliu, jei norite nutolinti; arba žalių rodyklių gretimoms žemėlapius.


METAR-TAF: